createdAt,value
2017-12-14T00:02:11.414Z,1.80
2017-12-14T00:04:59.892Z,1.70
2017-12-14T00:07:46.770Z,1.70
2017-12-14T00:10:20.741Z,1.57
2017-12-14T00:12:48.874Z,1.80
2017-12-14T00:15:22.507Z,1.57
2017-12-14T00:17:51.716Z,2.10
2017-12-14T00:20:19.931Z,1.57
2017-12-14T00:22:48.099Z,2.03
2017-12-14T00:25:17.865Z,1.80
2017-12-14T00:28:09.969Z,2.30
2017-12-14T00:30:38.424Z,2.00
2017-12-14T00:33:06.529Z,1.87
2017-12-14T00:35:35.618Z,2.00
2017-12-14T00:38:03.776Z,2.17
2017-12-14T00:40:32.004Z,2.13
2017-12-14T00:43:12.914Z,1.90
2017-12-14T00:45:41.056Z,1.83
2017-12-14T00:48:11.172Z,3.17
2017-12-14T00:50:39.444Z,2.10
2017-12-14T00:53:10.838Z,1.87
2017-12-14T00:58:47.054Z,1.93
2017-12-14T01:01:16.947Z,2.47
2017-12-14T01:03:45.042Z,2.03
2017-12-14T01:06:13.217Z,2.10
2017-12-14T01:08:41.436Z,2.17
2017-12-14T01:14:10.247Z,1.57
2017-12-14T01:16:38.429Z,1.40
2017-12-14T01:19:06.596Z,1.53
2017-12-14T01:21:36.678Z,1.53
2017-12-14T01:24:09.438Z,1.37
2017-12-14T01:26:38.578Z,1.30
2017-12-14T01:29:19.879Z,1.43
2017-12-14T01:31:48.060Z,1.10
2017-12-14T01:34:16.157Z,1.47
2017-12-14T01:36:44.269Z,1.30
2017-12-14T01:39:13.415Z,1.50
2017-12-14T01:41:41.614Z,1.60
2017-12-14T01:44:13.882Z,1.33
2017-12-14T01:46:42.003Z,1.17
2017-12-14T01:49:10.166Z,1.60
2017-12-14T01:51:42.150Z,2.00
2017-12-14T01:54:13.816Z,2.97
2017-12-14T01:56:55.930Z,3.00
2017-12-14T01:59:26.940Z,3.20
2017-12-14T02:01:55.190Z,3.30
2017-12-14T02:04:29.149Z,3.50
2017-12-14T02:06:57.323Z,3.40
2017-12-14T02:09:30.765Z,3.60
2017-12-14T02:11:58.875Z,3.70
2017-12-14T02:14:28.530Z,4.40
2017-12-14T02:20:01.514Z,3.87
2017-12-14T02:22:38.230Z,3.70
2017-12-14T02:25:06.459Z,3.83
2017-12-14T02:27:39.450Z,3.10
2017-12-14T02:30:10.619Z,2.77
2017-12-14T02:32:40.710Z,3.40
2017-12-14T02:35:21.365Z,2.80
2017-12-14T02:37:50.277Z,2.50
2017-12-14T02:40:21.256Z,2.50
2017-12-14T02:42:49.374Z,3.20
2017-12-14T02:45:17.511Z,2.37
2017-12-14T02:47:57.886Z,2.90
2017-12-14T02:50:38.398Z,1.90
2017-12-14T02:53:07.564Z,2.27
2017-12-14T02:55:38.395Z,2.23
2017-12-14T02:58:06.568Z,2.20
2017-12-14T03:00:41.244Z,2.23
2017-12-14T03:03:09.466Z,1.70
2017-12-14T03:05:41.026Z,2.30
2017-12-14T03:08:10.206Z,1.77
2017-12-14T03:10:57.451Z,2.10
2017-12-14T03:13:29.841Z,1.80
2017-12-14T03:15:59.883Z,1.80
2017-12-14T03:18:40.656Z,1.80
2017-12-14T03:21:08.823Z,1.93
2017-12-14T03:23:40.397Z,2.00
2017-12-14T03:26:08.580Z,1.90
2017-12-14T03:28:44.989Z,1.80
2017-12-14T03:31:25.381Z,2.10
2017-12-14T03:34:08.480Z,2.10
2017-12-14T03:36:36.616Z,2.10
2017-12-14T03:39:09.946Z,2.30
2017-12-14T03:41:38.839Z,2.00
2017-12-14T03:44:10.487Z,2.20
2017-12-14T03:46:44.589Z,3.53
2017-12-14T03:49:31.685Z,1.53
2017-12-14T03:52:04.814Z,2.63
2017-12-14T03:54:46.468Z,2.30
2017-12-14T03:57:15.538Z,2.20
2017-12-14T03:59:43.645Z,1.60
2017-12-14T04:02:21.407Z,2.53
2017-12-14T04:04:51.543Z,1.53
2017-12-14T04:07:27.917Z,1.90
2017-12-14T04:10:01.663Z,2.00
2017-12-14T04:12:31.922Z,2.27
2017-12-14T04:15:00.040Z,2.50
2017-12-14T04:17:28.204Z,2.13
2017-12-14T04:19:58.086Z,2.10
2017-12-14T04:22:27.368Z,2.90
2017-12-14T04:24:55.526Z,3.20
2017-12-14T04:27:24.428Z,2.27
2017-12-14T04:30:01.712Z,3.07
2017-12-14T04:32:34.733Z,2.67
2017-12-14T04:35:10.327Z,2.80
2017-12-14T04:37:39.467Z,2.77
2017-12-14T04:40:08.558Z,3.20
2017-12-14T04:42:37.749Z,3.87
2017-12-14T04:45:07.801Z,3.77
2017-12-14T04:47:37.938Z,3.60
2017-12-14T04:50:10.284Z,3.50
2017-12-14T04:52:38.426Z,4.37
2017-12-14T04:58:09.488Z,3.97
2017-12-14T05:00:37.620Z,4.53
2017-12-14T05:03:08.489Z,4.47
2017-12-14T05:05:41.663Z,4.80
2017-12-14T05:08:11.764Z,5.13
2017-12-14T05:10:39.936Z,5.53
2017-12-14T05:13:10.821Z,4.60
2017-12-14T05:15:43.612Z,5.70
2017-12-14T05:18:26.065Z,4.90
2017-12-14T05:20:54.295Z,5.03
2017-12-14T05:23:27.507Z,4.83
2017-12-14T05:26:00.353Z,4.80
2017-12-14T05:28:29.446Z,5.73
2017-12-14T05:30:58.531Z,5.00
2017-12-14T05:33:31.677Z,4.07
2017-12-14T05:36:03.140Z,3.40
2017-12-14T05:38:36.830Z,4.97
2017-12-14T05:41:05.710Z,4.10
2017-12-14T05:43:39.107Z,3.67
2017-12-14T05:46:15.094Z,4.33
2017-12-14T05:48:48.321Z,4.70
2017-12-14T05:51:16.420Z,4.10
2017-12-14T05:53:45.678Z,4.17
2017-12-14T05:56:15.825Z,4.03
2017-12-14T05:58:44.018Z,4.17
2017-12-14T06:01:12.198Z,4.10
2017-12-14T06:03:44.759Z,4.80
2017-12-14T06:06:16.330Z,4.30
2017-12-14T06:09:08.841Z,3.90
2017-12-14T06:11:36.958Z,3.83
2017-12-14T06:14:05.081Z,3.40
2017-12-14T06:16:40.131Z,3.80
2017-12-14T06:19:12.382Z,4.90
2017-12-14T06:21:40.527Z,4.03
2017-12-14T06:24:09.666Z,5.20
2017-12-14T06:26:37.982Z,5.43
2017-12-14T06:29:09.452Z,4.43
2017-12-14T06:31:37.611Z,4.97
2017-12-14T06:34:06.124Z,5.07
2017-12-14T06:36:35.209Z,5.00
2017-12-14T06:39:04.391Z,4.67
2017-12-14T06:41:34.753Z,6.03
2017-12-14T06:44:02.969Z,4.77
2017-12-14T06:46:34.568Z,5.50
2017-12-14T06:49:03.738Z,6.30
2017-12-14T06:51:32.088Z,5.40
2017-12-14T06:54:02.620Z,6.30
2017-12-14T06:56:31.675Z,4.43
2017-12-14T06:58:59.811Z,6.30
2017-12-14T07:01:28.014Z,6.63
2017-12-14T07:03:58.092Z,6.33
2017-12-14T07:06:26.270Z,5.50
2017-12-14T07:09:02.022Z,5.80
2017-12-14T07:11:30.303Z,5.20
2017-12-14T07:14:09.243Z,6.00
2017-12-14T07:16:40.769Z,6.37
2017-12-14T07:19:09.920Z,6.60
2017-12-14T07:21:38.175Z,7.33
2017-12-14T07:24:06.636Z,7.20
2017-12-14T07:26:45.910Z,6.40
2017-12-14T07:31:48.662Z,6.97
2017-12-14T07:34:20.861Z,6.97
2017-12-14T07:36:55.637Z,8.10
2017-12-14T07:39:23.774Z,5.90
2017-12-14T07:41:52.009Z,5.90
2017-12-14T07:44:35.896Z,6.47
2017-12-14T07:47:15.802Z,7.17
2017-12-14T07:49:45.060Z,6.20
2017-12-14T07:52:18.636Z,7.93
2017-12-14T07:54:48.933Z,6.80
2017-12-14T07:57:20.857Z,6.50
2017-12-14T07:59:49.991Z,6.33
2017-12-14T08:02:22.771Z,7.60
2017-12-14T08:04:51.882Z,6.37
2017-12-14T08:07:23.110Z,6.47
2017-12-14T08:09:51.341Z,7.40
2017-12-14T08:12:19.461Z,7.73
2017-12-14T08:14:49.231Z,6.03
2017-12-14T08:17:18.227Z,7.43
2017-12-14T08:19:50.556Z,7.00
2017-12-14T08:22:18.677Z,7.00
2017-12-14T08:24:52.680Z,6.43
2017-12-14T08:27:23.679Z,7.40
2017-12-14T08:29:55.783Z,7.80
2017-12-14T08:32:25.807Z,7.80
2017-12-14T08:34:54.963Z,8.23
2017-12-14T08:37:23.926Z,7.30
2017-12-14T08:39:52.018Z,6.77
2017-12-14T08:42:27.942Z,9.10
2017-12-14T08:44:58.215Z,8.33
2017-12-14T08:47:33.769Z,7.17
2017-12-14T08:50:03.001Z,8.13
2017-12-14T08:52:50.733Z,6.93
2017-12-14T08:55:19.971Z,8.63
2017-12-14T08:57:48.427Z,8.40
2017-12-14T09:00:21.263Z,7.10
2017-12-14T09:02:49.520Z,6.93
2017-12-14T09:05:19.633Z,7.00
2017-12-14T09:07:49.863Z,7.77
2017-12-14T09:10:19.012Z,7.80
2017-12-14T09:12:47.396Z,6.17
2017-12-14T09:15:16.626Z,7.60
2017-12-14T09:17:50.920Z,6.83
2017-12-14T09:20:19.120Z,7.10
2017-12-14T09:22:47.351Z,7.70
2017-12-14T09:25:15.591Z,7.57
2017-12-14T09:27:43.716Z,8.10
2017-12-14T09:30:12.446Z,7.70
2017-12-14T09:32:40.605Z,7.67
2017-12-14T09:35:09.511Z,7.07
2017-12-14T09:37:39.066Z,8.27
2017-12-14T09:40:07.245Z,7.73
2017-12-14T09:42:45.152Z,7.80
2017-12-14T09:45:14.245Z,7.10
2017-12-14T09:47:49.984Z,7.40
2017-12-14T09:50:19.118Z,8.63
2017-12-14T09:52:47.323Z,7.53
2017-12-14T09:55:15.767Z,8.03
2017-12-14T09:57:44.234Z,7.47
2017-12-14T10:00:13.104Z,6.93
2017-12-14T10:02:41.340Z,6.30
2017-12-14T10:05:09.608Z,6.60
2017-12-14T10:07:43.610Z,5.27
2017-12-14T10:10:11.970Z,5.17
2017-12-14T10:12:42.664Z,4.73
2017-12-14T10:15:11.201Z,5.80
2017-12-14T10:17:41.182Z,5.50
2017-12-14T10:20:10.766Z,5.00
2017-12-14T10:22:39.494Z,5.40
2017-12-14T10:25:08.511Z,4.80
2017-12-14T10:27:37.748Z,5.00
2017-12-14T10:30:07.046Z,5.90
2017-12-14T10:35:12.100Z,4.80
2017-12-14T10:37:40.324Z,4.47
2017-12-14T10:40:09.893Z,3.90
2017-12-14T10:42:38.940Z,4.33
2017-12-14T10:45:07.152Z,3.33
2017-12-14T10:47:35.311Z,3.70
2017-12-14T10:50:09.741Z,4.10
2017-12-14T10:52:38.531Z,3.70
2017-12-14T10:55:07.355Z,3.83
2017-12-14T10:57:36.512Z,4.63
2017-12-14T11:00:05.059Z,5.77
2017-12-14T11:02:34.874Z,5.53
2017-12-14T11:05:04.157Z,5.93
2017-12-14T11:07:33.900Z,4.43
2017-12-14T11:10:10.562Z,4.23
2017-12-14T11:12:39.637Z,4.60
2017-12-14T11:15:21.168Z,3.80
2017-12-14T11:17:50.252Z,3.77
2017-12-14T11:22:55.299Z,4.50
2017-12-14T11:25:23.518Z,4.30
2017-12-14T11:27:51.955Z,4.30
2017-12-14T11:30:20.219Z,4.50
2017-12-14T11:32:48.352Z,4.23
2017-12-14T11:35:28.335Z,4.80
2017-12-14T11:37:59.688Z,4.40
2017-12-14T11:43:45.168Z,4.50
2017-12-14T11:46:13.345Z,4.47
2017-12-14T11:48:42.519Z,5.10
2017-12-14T11:51:10.702Z,4.70
2017-12-14T11:53:39.642Z,4.50
2017-12-14T11:56:07.912Z,4.87
2017-12-14T11:58:39.509Z,4.53
2017-12-14T12:01:07.649Z,4.40
2017-12-14T12:03:39.714Z,5.03
2017-12-14T12:06:09.906Z,5.10
2017-12-14T12:08:40.042Z,4.77
2017-12-14T12:11:11.406Z,5.80
2017-12-14T12:13:39.632Z,6.07
2017-12-14T12:16:07.970Z,5.70
2017-12-14T12:18:38.099Z,5.33
2017-12-14T12:21:06.203Z,5.37
2017-12-14T12:23:34.400Z,5.87
2017-12-14T12:26:02.615Z,5.67
2017-12-14T12:28:31.558Z,5.13
2017-12-14T12:33:35.386Z,6.07
2017-12-14T12:36:03.594Z,4.93
2017-12-14T12:38:31.792Z,5.70
2017-12-14T12:41:00.143Z,6.00
2017-12-14T12:43:35.110Z,6.43
2017-12-14T12:46:03.478Z,6.50
2017-12-14T12:51:42.832Z,7.30
2017-12-14T12:54:11.037Z,6.70
2017-12-14T13:28:34.948Z,7.03
2017-12-14T13:31:03.100Z,7.60
2017-12-14T13:33:31.235Z,6.13
2017-12-14T13:36:01.341Z,7.00
2017-12-14T13:41:08.422Z,6.53
2017-12-14T13:43:39.515Z,6.70
2017-12-14T13:46:07.782Z,7.07
2017-12-14T13:48:37.054Z,8.60
2017-12-14T13:51:14.625Z,7.47
2017-12-14T13:53:42.776Z,7.80
2017-12-14T13:56:12.720Z,7.50
2017-12-14T13:58:44.083Z,8.00
2017-12-14T14:01:12.320Z,7.90
2017-12-14T14:06:50.757Z,7.73
2017-12-14T14:09:19.877Z,7.17
2017-12-14T14:11:48.050Z,7.03
2017-12-14T14:14:21.159Z,5.63
2017-12-14T14:16:49.812Z,5.83
2017-12-14T14:19:18.875Z,4.90
2017-12-14T14:21:47.084Z,5.60
2017-12-14T14:24:16.250Z,4.80
2017-12-14T14:26:46.628Z,4.90
2017-12-14T14:29:40.151Z,3.50
2017-12-14T14:32:08.651Z,4.13
2017-12-14T14:34:41.633Z,4.20
2017-12-14T14:37:09.791Z,4.20
2017-12-14T14:39:39.086Z,4.10
2017-12-14T14:42:07.211Z,4.43
2017-12-14T14:44:38.370Z,5.03
2017-12-14T14:47:11.326Z,4.33
2017-12-14T14:49:51.000Z,4.87
2017-12-14T14:52:19.229Z,4.93
2017-12-14T14:54:49.443Z,5.30
2017-12-14T14:57:17.566Z,6.03
2017-12-14T14:59:45.776Z,5.80
2017-12-14T15:02:18.144Z,5.60
2017-12-14T15:04:47.268Z,6.33
2017-12-14T15:07:16.383Z,5.47
2017-12-14T15:09:44.864Z,5.93
2017-12-14T15:12:13.979Z,5.10
2017-12-14T15:14:43.163Z,4.20
2017-12-14T15:17:12.313Z,4.33
2017-12-14T15:19:40.503Z,5.50
2017-12-14T15:22:11.910Z,5.50
2017-12-14T15:24:41.271Z,5.50
2017-12-14T15:27:10.439Z,5.40
2017-12-14T15:29:38.563Z,4.90
2017-12-14T15:32:07.647Z,5.30
2017-12-14T15:34:37.750Z,4.87
2017-12-14T15:37:08.775Z,5.10
2017-12-14T15:39:41.402Z,5.50
2017-12-14T15:42:09.779Z,4.70
2017-12-14T15:44:39.956Z,5.83
2017-12-14T15:53:24.726Z,5.53
2017-12-14T15:55:53.906Z,5.33
2017-12-14T15:58:36.498Z,5.30
2017-12-14T16:01:09.820Z,5.40
2017-12-14T16:03:41.686Z,5.07
2017-12-14T16:06:10.916Z,5.40
2017-12-14T16:08:40.070Z,6.20
2017-12-14T16:11:08.215Z,5.90
2017-12-14T16:13:42.111Z,5.40
2017-12-14T16:16:10.289Z,5.77
2017-12-14T16:18:39.295Z,5.80
2017-12-14T16:21:10.609Z,6.00
2017-12-14T16:23:39.858Z,5.83
2017-12-14T16:26:09.947Z,6.27
2017-12-14T16:28:39.852Z,6.43
2017-12-14T16:31:08.264Z,6.37
2017-12-14T16:33:37.256Z,6.40
2017-12-14T16:36:06.551Z,5.77
2017-12-14T16:38:35.791Z,5.97
2017-12-14T16:41:08.739Z,5.90
2017-12-14T16:43:41.491Z,6.10
2017-12-14T16:46:12.456Z,6.37
2017-12-14T16:48:40.737Z,5.57
2017-12-14T16:51:09.044Z,5.77
2017-12-14T16:53:38.294Z,5.83
2017-12-14T16:56:07.772Z,5.90
2017-12-14T16:58:35.992Z,6.43
2017-12-14T17:01:05.250Z,6.03
2017-12-14T17:03:35.418Z,6.30
2017-12-14T17:06:04.628Z,6.70
2017-12-14T17:08:36.876Z,5.60
2017-12-14T17:11:05.121Z,7.43
2017-12-14T17:13:35.301Z,6.20
2017-12-14T17:16:03.554Z,5.93
2017-12-14T17:18:34.564Z,6.50
2017-12-14T17:21:10.350Z,7.20
2017-12-14T17:23:42.512Z,6.57
2017-12-14T17:26:12.837Z,6.77
2017-12-14T17:28:41.476Z,6.40
2017-12-14T17:31:12.959Z,6.90
2017-12-14T17:33:41.513Z,7.53
2017-12-14T17:36:09.906Z,6.13
2017-12-14T17:38:41.642Z,6.93
2017-12-14T17:41:17.026Z,7.03
2017-12-14T17:43:59.060Z,6.90
2017-12-14T17:46:29.255Z,8.13
2017-12-14T17:49:01.028Z,6.70
2017-12-14T17:51:39.898Z,6.80
2017-12-14T17:54:10.080Z,6.90
2017-12-14T17:56:38.738Z,6.97
2017-12-14T17:59:06.845Z,7.23
2017-12-14T18:01:35.993Z,7.87
2017-12-14T18:04:25.318Z,7.77
2017-12-14T18:06:53.600Z,7.43
2017-12-14T18:09:22.603Z,7.47
2017-12-14T18:11:51.641Z,7.63
2017-12-14T18:14:20.666Z,8.63
2017-12-14T18:16:50.730Z,7.53
2017-12-14T18:19:20.834Z,8.43
2017-12-14T18:21:49.301Z,8.60
2017-12-14T18:24:40.652Z,8.20
2017-12-14T18:27:15.578Z,7.40
2017-12-14T18:29:44.793Z,9.33
2017-12-14T18:32:12.943Z,8.40
2017-12-14T18:34:41.212Z,7.80
2017-12-14T18:37:09.382Z,8.77
2017-12-14T18:39:37.565Z,6.87
2017-12-14T18:42:05.719Z,7.23
2017-12-14T18:44:33.999Z,9.00
2017-12-14T18:47:12.682Z,8.30
2017-12-14T18:49:40.914Z,7.43
2017-12-14T18:52:10.023Z,8.97
2017-12-14T18:54:41.319Z,7.13
2017-12-14T18:57:15.757Z,8.57
2017-12-14T18:59:46.020Z,10.03
2017-12-14T19:02:14.207Z,8.53
2017-12-14T19:04:45.933Z,8.60
2017-12-14T19:07:15.990Z,9.93
2017-12-14T19:09:44.317Z,8.30
2017-12-14T19:12:14.210Z,7.97
2017-12-14T19:14:46.270Z,8.80
2017-12-14T19:17:17.867Z,8.97
2017-12-14T19:19:46.174Z,9.57
2017-12-14T19:22:29.686Z,7.30
2017-12-14T19:25:07.603Z,7.47
2017-12-14T19:27:39.355Z,8.20
2017-12-14T19:30:07.588Z,8.87
2017-12-14T19:32:37.892Z,10.03
2017-12-14T19:35:18.324Z,10.27
2017-12-14T19:37:48.410Z,8.50
2017-12-14T19:40:19.295Z,9.70
2017-12-14T19:42:51.534Z,9.10
2017-12-14T19:45:20.827Z,9.83
2017-12-14T19:47:48.924Z,8.87
2017-12-14T19:50:17.165Z,9.80
2017-12-14T19:52:51.109Z,8.50
2017-12-14T19:55:27.711Z,9.53
2017-12-14T19:57:57.888Z,9.67
2017-12-14T20:00:26.078Z,9.87
2017-12-14T20:03:01.038Z,9.87
2017-12-14T20:05:31.287Z,9.40
2017-12-14T20:08:09.925Z,9.43
2017-12-14T20:10:40.729Z,9.27
2017-12-14T20:13:25.683Z,10.60
2017-12-14T20:15:56.030Z,10.30
2017-12-14T20:18:41.040Z,10.10
2017-12-14T20:21:10.009Z,9.00
2017-12-14T20:23:51.404Z,10.03
2017-12-14T20:26:26.804Z,9.50
2017-12-14T20:29:06.037Z,10.67
2017-12-14T20:31:44.242Z,10.73
2017-12-14T20:34:13.138Z,11.70
2017-12-14T20:36:43.311Z,10.10
2017-12-14T20:39:14.566Z,9.73
2017-12-14T20:41:42.666Z,10.50
2017-12-14T20:44:11.822Z,10.03
2017-12-14T20:46:40.521Z,11.10
2017-12-14T20:49:10.957Z,10.50
2017-12-14T20:51:39.117Z,10.67
2017-12-14T20:54:09.290Z,10.90
2017-12-14T20:56:41.371Z,10.53
2017-12-14T20:59:10.334Z,11.30
2017-12-14T21:01:38.581Z,11.70
2017-12-14T21:04:08.967Z,11.70
2017-12-14T21:06:43.933Z,12.37
2017-12-14T21:09:12.236Z,11.10
2017-12-14T21:11:40.911Z,12.50
2017-12-14T21:14:09.942Z,12.20
2017-12-14T21:16:48.522Z,12.50
2017-12-14T21:19:16.680Z,13.43
2017-12-14T21:21:44.915Z,11.90
2017-12-14T21:24:15.933Z,10.70
2017-12-14T21:26:46.222Z,13.77
2017-12-14T21:29:17.152Z,14.20
2017-12-14T21:31:51.278Z,13.37
2017-12-14T21:34:43.172Z,13.03
2017-12-14T21:37:11.303Z,13.70
2017-12-14T21:43:42.877Z,13.47
2017-12-14T21:46:12.326Z,13.73
2017-12-14T21:48:40.611Z,14.10
2017-12-14T21:51:11.014Z,13.50
2017-12-14T21:53:40.283Z,13.43
2017-12-14T21:56:13.440Z,13.93
2017-12-14T21:58:41.965Z,13.57
2017-12-14T22:01:11.541Z,13.60
2017-12-14T22:03:39.805Z,12.37
2017-12-14T22:06:08.937Z,13.77
2017-12-14T22:08:44.036Z,14.53
2017-12-14T22:11:12.438Z,14.43
2017-12-14T22:13:40.738Z,14.50
2017-12-14T22:19:20.510Z,12.93
2017-12-14T22:21:54.301Z,13.27
2017-12-14T22:24:23.460Z,14.10
2017-12-14T22:26:55.120Z,13.80
2017-12-14T22:29:23.372Z,14.03
2017-12-14T22:31:51.649Z,14.93
2017-12-14T22:34:19.898Z,16.57
2017-12-14T22:36:48.293Z,15.97
2017-12-14T22:39:22.706Z,14.80
2017-12-14T22:41:56.555Z,14.60
2017-12-14T22:44:24.817Z,13.50
2017-12-14T22:46:53.893Z,14.93
2017-12-14T22:49:23.001Z,15.40
2017-12-14T22:51:52.050Z,15.40
2017-12-14T22:54:20.330Z,15.10
2017-12-14T22:56:50.451Z,14.30
2017-12-14T22:59:32.350Z,14.70
2017-12-14T23:02:13.021Z,15.57
2017-12-14T23:04:41.221Z,15.80
2017-12-14T23:07:09.501Z,14.40
2017-12-14T23:09:41.700Z,13.87
2017-12-14T23:12:18.209Z,14.63
2017-12-14T23:14:51.173Z,14.90
2017-12-14T23:17:19.347Z,15.00
2017-12-14T23:19:53.618Z,13.63
2017-12-14T23:22:23.733Z,13.97
2017-12-14T23:24:51.862Z,14.20
2017-12-14T23:27:23.202Z,15.37
2017-12-14T23:29:52.411Z,14.00
2017-12-14T23:32:22.846Z,15.20
2017-12-14T23:34:50.990Z,14.43
2017-12-14T23:37:21.915Z,13.70
2017-12-14T23:39:50.030Z,13.87
2017-12-14T23:42:19.114Z,13.57
2017-12-14T23:44:55.737Z,13.70
2017-12-14T23:47:23.968Z,13.83
2017-12-14T23:49:52.110Z,15.60
2017-12-14T23:52:24.436Z,12.87
2017-12-14T23:54:56.056Z,14.77
2017-12-14T23:57:43.897Z,13.90
